Time;durP1;ratioP1;P1;durP2;ratioP2;P2;SDS_P1;SDS_P2;PMS_P1;PMS_P2;Temp;Humidity;BMP_temperature;BMP_pressure;BME280_temperature;BME280_humidity;BME280_pressure;Samples;Min_cycle;Max_cycle;Signal;HPM_P1;HPM_P2
2021/12/04 00:01:50;;;;;;;32.03;20.27;;;4.70;91.40;;;;;;4961649;28;20655;-70
2021/12/04 00:04:30;;;;;;;29.03;18.50;;;4.70;91.40;;;;;;4955868;29;20212;-70
2021/12/04 00:06:58;;;;;;;25.60;17.97;;;4.60;91.40;;;;;;4955878;29;20669;-70
2021/12/04 00:09:25;;;;;;;27.93;18.87;;;4.60;91.50;;;;;;4957251;29;20240;-70
2021/12/04 00:12:03;;;;;;;27.67;20.03;;;4.50;91.50;;;;;;4957691;28;20226;-70
2021/12/04 00:14:31;;;;;;;33.03;22.57;;;4.50;91.70;;;;;;4955832;29;20215;-70
2021/12/04 00:17:00;;;;;;;33.50;21.17;;;4.50;91.90;;;;;;4956427;29;20784;-70
2021/12/04 00:19:28;;;;;;;34.83;19.50;;;4.60;92.00;;;;;;4956605;29;20258;-70
2021/12/04 00:21:56;;;;;;;27.57;20.10;;;4.60;92.00;;;;;;4960180;28;20253;-70
2021/12/04 00:24:24;;;;;;;30.53;20.20;;;4.60;92.00;;;;;;4955180;29;20217;-70
2021/12/04 00:26:53;;;;;;;31.30;21.63;;;4.60;91.90;;;;;;4956359;28;21782;-70
2021/12/04 00:29:22;;;;;;;37.07;24.00;;;4.60;91.90;;;;;;4956539;29;20215;-70
2021/12/04 00:31:57;;;;;;;31.00;21.80;;;4.60;91.90;;;;;;4955613;28;20200;-70
2021/12/04 00:34:27;;;;;;;28.00;20.13;;;4.50;91.80;;;;;;4956758;29;20303;-70
2021/12/04 00:50:30;;;;;;;33.77;20.50;;;4.50;91.90;;;;;;4957415;28;20320;-70
2021/12/04 00:52:57;;;;;;;32.50;20.43;;;4.50;91.90;;;;;;4957306;28;20682;-70
2021/12/04 00:55:24;;;;;;;32.20;19.87;;;4.50;91.90;;;;;;4955242;29;20242;-70
2021/12/04 00:57:52;;;;;;;29.47;19.23;;;4.50;91.90;;;;;;4956412;29;20287;-70
2021/12/04 01:00:21;;;;;;;30.97;20.37;;;4.50;91.90;;;;;;4955912;29;20595;-70
2021/12/04 01:02:48;;;;;;;25.63;20.03;;;4.50;92.00;;;;;;4957211;28;20206;-70
2021/12/04 01:05:16;;;;;;;29.90;20.90;;;4.50;92.00;;;;;;4953321;29;20649;-70
2021/12/04 01:07:43;;;;;;;32.37;20.13;;;4.50;92.00;;;;;;4955924;29;20237;-70
2021/12/04 01:10:11;;;;;;;23.37;19.60;;;4.60;92.20;;;;;;4955785;29;20239;-70
2021/12/04 01:12:38;;;;;;;28.67;20.67;;;4.60;92.20;;;;;;4967780;28;20315;-70
2021/12/04 01:15:07;;;;;;;25.73;18.40;;;4.60;92.30;;;;;;4956730;28;20312;-70
2021/12/04 01:17:34;;;;;;;30.33;21.53;;;4.70;92.20;;;;;;4955909;29;20741;-70
2021/12/04 01:20:02;;;;;;;25.57;18.23;;;4.70;92.20;;;;;;4955919;29;20308;-70
2021/12/04 01:22:33;;;;;;;23.80;17.60;;;4.70;92.10;;;;;;4956115;28;20370;-70
2021/12/04 01:25:01;;;;;;;26.33;16.97;;;4.70;92.10;;;;;;4954397;29;20304;-70
2021/12/04 01:27:29;;;;;;;25.17;17.73;;;4.60;92.10;;;;;;4957772;28;20296;-70
2021/12/04 01:29:56;;;;;;;21.07;16.83;;;4.70;92.10;;;;;;4955593;29;20766;-70
2021/12/04 01:32:24;;;;;;;23.40;16.87;;;4.60;92.00;;;;;;4955252;28;20218;-70
2021/12/04 01:34:51;;;;;;;22.53;17.47;;;4.60;91.90;;;;;;4968295;28;20208;-70
2021/12/04 01:37:18;;;;;;;28.53;17.90;;;4.60;92.00;;;;;;4956153;28;20265;-70
2021/12/04 01:39:45;;;;;;;22.80;17.37;;;4.60;92.00;;;;;;4955435;29;20207;-70
2021/12/04 01:42:16;;;;;;;25.90;18.27;;;4.60;92.00;;;;;;4953116;29;20287;-70
2021/12/04 01:44:43;;;;;;;27.90;17.70;;;4.60;91.90;;;;;;4954707;28;20310;-70
2021/12/04 01:47:13;;;;;;;25.90;17.90;;;4.60;91.90;;;;;;4955007;29;20233;-70
2021/12/04 01:49:41;;;;;;;27.30;16.53;;;4.60;91.90;;;;;;4963158;28;20231;-70
2021/12/04 01:52:09;;;;;;;24.17;17.50;;;4.60;91.90;;;;;;4947296;28;20230;-70
2021/12/04 01:54:36;;;;;;;21.03;15.40;;;4.60;91.90;;;;;;4955920;28;20285;-70
2021/12/04 01:57:04;;;;;;;27.23;17.90;;;4.60;91.90;;;;;;4955837;28;20619;-70
2021/12/04 01:59:31;;;;;;;26.80;17.70;;;4.60;91.90;;;;;;4952522;29;20212;-70
2021/12/04 02:02:00;;;;;;;25.23;17.67;;;4.60;91.90;;;;;;4952565;29;20349;-70
2021/12/04 02:04:27;;;;;;;29.20;18.53;;;4.60;91.90;;;;;;4955821;28;20213;-70
2021/12/04 02:06:55;;;;;;;24.70;16.53;;;4.60;91.90;;;;;;4955778;28;20257;-70
2021/12/04 02:09:23;;;;;;;23.63;17.30;;;4.60;92.00;;;;;;4955742;29;20238;-70
2021/12/04 02:11:50;;;;;;;25.63;17.53;;;4.60;92.00;;;;;;4969413;28;20245;-70
2021/12/04 02:14:17;;;;;;;31.43;17.70;;;4.60;92.00;;;;;;4955696;28;20231;-70
2021/12/04 02:16:45;;;;;;;24.97;18.27;;;4.70;92.10;;;;;;4951637;28;20262;-70
2021/12/04 02:19:14;;;;;;;22.13;17.10;;;4.70;92.00;;;;;;4955826;28;20219;-70
2021/12/04 02:21:41;;;;;;;25.77;18.70;;;4.60;92.00;;;;;;4954197;29;20369;-70
2021/12/04 02:24:08;;;;;;;23.73;17.30;;;4.60;92.00;;;;;;4953895;29;20309;-70
2021/12/04 02:26:36;;;;;;;23.73;16.47;;;4.60;92.00;;;;;;4954370;29;20208;-70
2021/12/04 02:29:03;;;;;;;19.53;14.67;;;4.60;92.00;;;;;;4955409;28;20242;-70
2021/12/04 02:31:31;;;;;;;24.33;17.53;;;4.60;92.00;;;;;;4952518;29;20212;-70
2021/12/04 02:33:58;;;;;;;22.47;17.13;;;4.60;92.00;;;;;;4962460;28;20202;-70
2021/12/04 02:36:26;;;;;;;25.33;17.80;;;4.60;92.00;;;;;;4954617;29;20286;-70
2021/12/04 02:38:54;;;;;;;24.00;16.13;;;4.60;92.00;;;;;;4962757;28;20543;-70
2021/12/04 02:41:23;;;;;;;25.07;15.33;;;4.60;92.00;;;;;;4955381;28;20476;-70
2021/12/04 02:43:50;;;;;;;22.53;16.27;;;4.60;91.90;;;;;;4954812;29;20250;-69
2021/12/04 02:46:18;;;;;;;20.57;15.30;;;4.50;91.70;;;;;;4954878;28;20239;-69
2021/12/04 02:48:47;;;;;;;21.63;16.17;;;4.50;91.70;;;;;;4952844;29;20285;-69
2021/12/04 02:51:19;;;;;;;21.63;14.83;;;4.40;91.70;;;;;;4953439;29;20218;-69
2021/12/04 02:53:46;;;;;;;18.77;15.13;;;4.40;91.70;;;;;;4949744;28;20219;-69
2021/12/04 02:56:13;;;;;;;21.40;15.63;;;4.40;91.70;;;;;;4953809;28;20230;-69
2021/12/04 02:58:46;;;;;;;20.57;16.50;;;4.30;91.70;;;;;;4953607;29;20211;-69
2021/12/04 03:01:13;;;;;;;22.87;16.23;;;4.30;91.70;;;;;;4968865;28;20250;-69
2021/12/04 03:03:42;;;;;;;24.73;15.93;;;4.30;91.70;;;;;;4951631;29;20211;-69
2021/12/04 03:06:09;;;;;;;22.93;16.03;;;4.20;91.80;;;;;;4953832;29;20238;-69
2021/12/04 03:08:36;;;;;;;20.17;15.80;;;4.20;91.90;;;;;;4956780;28;20301;-70
2021/12/04 03:11:03;;;;;;;20.10;15.07;;;4.20;91.90;;;;;;4954448;28;20236;-70
2021/12/04 03:13:31;;;;;;;22.70;15.27;;;4.20;91.80;;;;;;4954446;28;20210;-70
2021/12/04 03:15:59;;;;;;;20.07;14.63;;;4.20;91.60;;;;;;4954277;28;20208;-69
2021/12/04 03:18:27;;;;;;;21.47;15.73;;;4.20;91.60;;;;;;4954928;28;20206;-69
2021/12/04 03:20:58;;;;;;;19.77;14.67;;;4.10;91.60;;;;;;4953499;28;20685;-69
2021/12/04 03:23:30;;;;;;;20.47;15.33;;;4.10;91.60;;;;;;4960973;28;20613;-69
2021/12/04 03:25:59;;;;;;;20.90;14.60;;;4.10;91.50;;;;;;4954856;28;20254;-69
2021/12/04 03:28:28;;;;;;;18.97;14.50;;;4.10;91.50;;;;;;4951578;29;20225;-70
2021/12/04 03:31:12;;;;;;;20.13;13.80;;;4.00;91.50;;;;;;4956945;28;20248;-70
2021/12/04 03:42:09;;;;;;;19.13;13.20;;;3.90;91.60;;;;;;4951146;29;20792;-70
2021/12/04 03:44:37;;;;;;;17.97;13.73;;;3.90;91.50;;;;;;4953318;29;20302;-70
2021/12/04 03:47:04;;;;;;;19.00;12.93;;;3.90;91.40;;;;;;4953547;29;20206;-70
2021/12/04 03:49:32;;;;;;;16.90;13.53;;;3.90;91.30;;;;;;4953798;29;20235;-70
2021/12/04 03:51:59;;;;;;;19.63;13.87;;;3.80;91.30;;;;;;4953323;29;20206;-70
2021/12/04 03:54:26;;;;;;;18.30;13.50;;;3.80;91.40;;;;;;4953743;29;20244;-70
2021/12/04 03:57:02;;;;;;;18.93;13.10;;;3.80;91.50;;;;;;4953128;28;20206;-70
2021/12/04 03:59:36;;;;;;;16.17;12.57;;;3.80;91.70;;;;;;4952621;29;20230;-70
2021/12/04 04:02:06;;;;;;;15.87;12.03;;;3.80;91.90;;;;;;4951679;28;20310;-70
2021/12/04 04:04:34;;;;;;;16.27;11.77;;;3.80;91.90;;;;;;4959629;28;20690;-70
2021/12/04 04:07:01;;;;;;;19.93;13.13;;;3.80;91.80;;;;;;4952715;28;20726;-70
2021/12/04 04:09:28;;;;;;;17.63;12.07;;;3.80;91.90;;;;;;4958041;28;20223;-70
2021/12/04 04:11:57;;;;;;;15.47;12.10;;;3.80;91.90;;;;;;4957363;28;20298;-70
2021/12/04 04:14:25;;;;;;;14.77;11.67;;;3.80;91.90;;;;;;4956091;29;20260;-70
2021/12/04 04:16:54;;;;;;;14.73;11.87;;;3.80;91.80;;;;;;4955356;29;20230;-70
2021/12/04 04:19:23;;;;;;;16.37;12.00;;;3.80;91.80;;;;;;4957023;29;20281;-70
2021/12/04 04:21:56;;;;;;;16.53;12.00;;;3.80;91.70;;;;;;4957436;28;20630;-70
2021/12/04 04:24:28;;;;;;;16.23;11.83;;;3.70;91.70;;;;;;4954613;29;20246;-70
2021/12/04 04:26:56;;;;;;;14.97;11.07;;;3.70;91.80;;;;;;4956760;28;20233;-70
2021/12/04 04:29:24;;;;;;;14.43;9.93;;;3.70;91.90;;;;;;4956219;29;20585;-70
2021/12/04 04:31:54;;;;;;;18.17;11.33;;;3.70;91.90;;;;;;4954669;29;20207;-70
2021/12/04 04:34:30;;;;;;;14.53;11.60;;;3.70;91.90;;;;;;4956425;29;20283;-70
2021/12/04 04:40:21;;;;;;;14.20;10.63;;;3.70;91.90;;;;;;4970606;28;20241;-70
2021/12/04 05:15:22;;;;;;;11.37;9.07;;;3.60;91.50;;;;;;4956289;29;20213;-69
2021/12/04 05:20:25;;;;;;;11.43;8.60;;;3.50;91.50;;;;;;4956267;28;20237;-69
2021/12/04 05:22:52;;;;;;;9.33;8.30;;;3.60;91.50;;;;;;4956044;28;20276;-69
2021/12/04 05:25:19;;;;;;;9.33;7.90;;;3.50;91.50;;;;;;4956594;29;20229;-69
2021/12/04 05:27:47;;;;;;;11.57;8.80;;;3.50;91.50;;;;;;4955286;28;20246;-69
2021/12/04 05:30:14;;;;;;;11.67;8.90;;;3.50;91.50;;;;;;4956644;28;20236;-69
2021/12/04 05:32:41;;;;;;;11.70;7.73;;;3.50;91.50;;;;;;4956895;28;20226;-69
2021/12/04 05:35:09;;;;;;;9.53;7.80;;;3.40;91.40;;;;;;4939629;29;20288;-69
2021/12/04 05:37:36;;;;;;;10.17;7.70;;;3.40;91.40;;;;;;4956144;28;20534;-69
2021/12/04 05:40:10;;;;;;;10.63;8.27;;;3.40;91.40;;;;;;4956784;28;20208;-69
2021/12/04 05:42:37;;;;;;;8.27;6.70;;;3.40;91.40;;;;;;4956264;28;20223;-69
2021/12/04 05:45:13;;;;;;;9.97;7.93;;;3.40;91.50;;;;;;4959375;28;20250;-69
2021/12/04 05:47:49;;;;;;;10.87;7.67;;;3.40;91.50;;;;;;4955556;29;20290;-69
2021/12/04 05:50:34;;;;;;;9.13;7.20;;;3.40;91.60;;;;;;4955335;29;20312;-69
2021/12/04 05:55:32;;;;;;;11.03;7.70;;;3.40;91.70;;;;;;4960108;28;20217;-69
2021/12/04 05:57:59;;;;;;;9.83;7.50;;;3.40;91.80;;;;;;4942639;29;20256;-69
2021/12/04 06:00:26;;;;;;;8.43;6.03;;;3.40;91.80;;;;;;4954771;29;20210;-70
2021/12/04 06:02:58;;;;;;;9.43;6.43;;;3.40;91.90;;;;;;4964073;28;20593;-70
2021/12/04 06:05:25;;;;;;;10.63;6.57;;;3.40;91.90;;;;;;4969061;28;20248;-70
2021/12/04 06:07:53;;;;;;;16.37;7.00;;;3.40;91.80;;;;;;4964159;28;20590;-70
2021/12/04 06:10:20;;;;;;;7.77;6.00;;;3.40;91.80;;;;;;4952985;29;20689;-70
2021/12/04 06:12:48;;;;;;;12.40;7.00;;;3.40;91.70;;;;;;4953783;28;20550;-70
2021/12/04 06:15:15;;;;;;;9.00;5.73;;;3.40;91.80;;;;;;4952485;28;20226;-70
2021/12/04 06:17:43;;;;;;;7.53;5.97;;;3.40;91.80;;;;;;4969509;28;20218;-70
2021/12/04 06:22:57;;;;;;;10.27;6.67;;;3.40;91.70;;;;;;4955961;29;20329;-70
2021/12/04 06:25:25;;;;;;;10.77;7.07;;;3.40;91.70;;;;;;4952510;29;20221;-70
2021/12/04 06:27:53;;;;;;;12.00;6.83;;;3.40;91.80;;;;;;4954698;28;20229;-70
2021/12/04 06:30:22;;;;;;;7.57;6.27;;;3.40;91.80;;;;;;4952760;28;20234;-70
2021/12/04 06:32:51;;;;;;;9.97;7.07;;;3.40;91.90;;;;;;4966374;28;20207;-70
2021/12/04 06:35:20;;;;;;;9.60;6.70;;;3.40;91.90;;;;;;4951733;28;20229;-70
2021/12/04 06:37:49;;;;;;;8.57;6.43;;;3.40;91.90;;;;;;4953882;28;20278;-70
2021/12/04 06:40:20;;;;;;;8.37;6.23;;;3.40;91.90;;;;;;4938844;29;20216;-70
2021/12/04 06:42:48;;;;;;;8.40;6.80;;;3.40;91.90;;;;;;4968191;28;20213;-70
2021/12/04 06:45:15;;;;;;;9.07;5.80;;;3.40;91.90;;;;;;4954254;29;20218;-69
2021/12/04 06:47:51;;;;;;;9.40;5.87;;;3.50;91.90;;;;;;4954252;29;20245;-69
2021/12/04 06:50:54;;;;;;;9.40;7.30;;;3.50;91.90;;;;;;4955370;28;20213;-69
2021/12/04 06:55:58;;;;;;;10.83;7.10;;;3.50;91.70;;;;;;4955128;29;20248;-69
2021/12/04 06:58:28;;;;;;;10.73;7.00;;;3.50;91.70;;;;;;4952870;29;20213;-69
2021/12/04 07:00:56;;;;;;;11.50;7.43;;;3.50;91.60;;;;;;4952844;29;20267;-69
2021/12/04 07:03:24;;;;;;;9.00;7.27;;;3.60;91.60;;;;;;4961080;28;20647;-69
2021/12/04 07:05:52;;;;;;;10.40;6.70;;;3.60;91.60;;;;;;4947757;28;20221;-69
2021/12/04 07:08:19;;;;;;;11.00;7.07;;;3.60;91.70;;;;;;4952406;29;20217;-69
2021/12/04 07:10:47;;;;;;;9.13;6.80;;;3.70;91.70;;;;;;4943850;28;20340;-69
2021/12/04 07:13:14;;;;;;;11.43;7.03;;;3.70;91.70;;;;;;4952680;29;20221;-69
2021/12/04 07:15:45;;;;;;;10.53;7.00;;;3.70;91.90;;;;;;4954414;29;20662;-69
2021/12/04 07:18:14;;;;;;;9.60;6.67;;;3.80;91.60;;;;;;4954803;29;20199;-69
2021/12/04 07:20:41;;;;;;;13.37;7.57;;;3.80;91.50;;;;;;4954261;28;20298;-69
2021/12/04 07:23:09;;;;;;;10.30;6.53;;;3.90;91.60;;;;;;4946564;28;20214;-69
2021/12/04 07:25:36;;;;;;;10.63;7.30;;;3.90;91.60;;;;;;4952059;29;20235;-69
2021/12/04 07:28:03;;;;;;;11.40;7.40;;;3.90;91.50;;;;;;4956471;28;20215;-69
2021/12/04 07:30:31;;;;;;;15.17;7.10;;;3.90;91.60;;;;;;4970093;28;20226;-69
2021/12/04 07:32:58;;;;;;;10.20;6.27;;;3.90;91.50;;;;;;4967339;28;20227;-69
2021/12/04 07:35:26;;;;;;;9.93;6.67;;;4.00;91.50;;;;;;4964078;28;20219;-69
2021/12/04 07:37:53;;;;;;;10.47;6.60;;;4.00;91.50;;;;;;4968659;28;20633;-69
2021/12/04 07:40:21;;;;;;;6.87;6.03;;;4.00;91.40;;;;;;4954927;28;20209;-69
2021/12/04 07:42:48;;;;;;;7.57;6.33;;;4.00;91.30;;;;;;4957302;28;20290;-69
2021/12/04 07:45:16;;;;;;;8.77;6.67;;;4.10;91.30;;;;;;4958607;28;20643;-69
2021/12/04 07:47:46;;;;;;;8.53;6.77;;;4.10;91.30;;;;;;4957582;29;20211;-69
2021/12/04 07:50:14;;;;;;;13.00;7.77;;;4.10;91.30;;;;;;4956276;29;20211;-69
2021/12/04 07:52:42;;;;;;;9.37;6.80;;;4.10;91.30;;;;;;4958952;28;20303;-69
2021/12/04 07:55:10;;;;;;;13.97;8.57;;;4.10;91.30;;;;;;4972241;28;20297;-70
2021/12/04 07:57:37;;;;;;;17.40;11.50;;;4.10;91.30;;;;;;4958280;28;20297;-70
2021/12/04 08:00:07;;;;;;;14.40;9.40;;;4.10;91.30;;;;;;4958377;28;20232;-70
2021/12/04 08:02:35;;;;;;;18.80;11.93;;;4.10;91.30;;;;;;4967344;28;20306;-70
2021/12/04 08:05:03;;;;;;;15.50;11.60;;;4.20;91.40;;;;;;4954100;28;20216;-70
2021/12/04 08:07:30;;;;;;;23.97;14.53;;;4.20;91.50;;;;;;4957257;29;20198;-70
2021/12/04 08:09:57;;;;;;;36.03;24.60;;;4.30;91.50;;;;;;4957295;28;20210;-70
2021/12/04 08:12:25;;;;;;;34.67;20.67;;;4.30;91.50;;;;;;4957885;28;20660;-70
2021/12/04 08:14:53;;;;;;;30.43;17.43;;;4.40;91.50;;;;;;4956492;28;20256;-70
2021/12/04 08:17:21;;;;;;;13.57;9.67;;;4.40;91.50;;;;;;4956873;29;20207;-70
2021/12/04 08:19:48;;;;;;;15.07;8.90;;;4.50;91.60;;;;;;4957482;29;20211;-70
2021/12/04 08:22:16;;;;;;;15.43;10.37;;;4.50;91.50;;;;;;4956950;29;20581;-70
2021/12/04 08:24:45;;;;;;;15.73;11.23;;;4.60;91.30;;;;;;4957213;28;20234;-70
2021/12/04 08:27:14;;;;;;;13.37;9.43;;;4.60;91.30;;;;;;4943021;28;20253;-70
2021/12/04 08:29:43;;;;;;;13.40;9.20;;;4.60;91.40;;;;;;4958337;28;20210;-70
2021/12/04 08:32:10;;;;;;;12.50;9.37;;;4.70;91.30;;;;;;4955995;29;20247;-70
2021/12/04 08:34:38;;;;;;;13.20;9.60;;;4.70;91.20;;;;;;4954388;29;20316;-70
2021/12/04 08:37:06;;;;;;;14.20;9.53;;;4.80;91.30;;;;;;4955455;29;20719;-70
2021/12/04 08:39:33;;;;;;;14.20;9.80;;;4.90;91.50;;;;;;4956661;29;20294;-70
2021/12/04 08:42:00;;;;;;;19.23;11.30;;;4.90;91.30;;;;;;4957073;29;20412;-70
2021/12/04 08:44:29;;;;;;;16.53;10.50;;;5.00;91.20;;;;;;4957529;28;20286;-70
2021/12/04 08:46:57;;;;;;;16.03;11.53;;;5.00;91.30;;;;;;4957013;28;20244;-70
2021/12/04 08:49:26;;;;;;;20.37;13.83;;;5.10;91.30;;;;;;4955730;29;20335;-70
2021/12/04 08:51:53;;;;;;;23.73;14.50;;;5.10;91.40;;;;;;4955976;28;20224;-70
2021/12/04 08:54:20;;;;;;;23.70;15.10;;;5.20;91.50;;;;;;4955946;28;20287;-70
2021/12/04 08:56:48;;;;;;;25.77;16.53;;;5.30;91.60;;;;;;4957031;28;20524;-70
2021/12/04 08:59:15;;;;;;;20.20;15.17;;;5.40;91.60;;;;;;4957273;28;20206;-70
2021/12/04 09:01:43;;;;;;;22.07;17.73;;;5.50;91.70;;;;;;4953024;28;20242;-70
2021/12/04 09:04:35;;;;;;;28.90;18.27;;;5.60;91.60;;;;;;4956330;28;20232;-70
2021/12/04 09:07:06;;;;;;;22.80;17.13;;;5.70;91.60;;;;;;4956361;29;20619;-70
2021/12/04 09:09:34;;;;;;;21.23;18.00;;;5.80;91.50;;;;;;4957244;28;20236;-70
2021/12/04 09:12:20;;;;;;;27.30;17.60;;;5.90;91.40;;;;;;4952786;28;20240;-70
2021/12/04 09:14:49;;;;;;;20.30;16.37;;;6.00;91.30;;;;;;4955699;28;20624;-70
2021/12/04 09:17:18;;;;;;;22.73;17.93;;;6.10;91.10;;;;;;4952797;29;20219;-70
2021/12/04 09:19:47;;;;;;;26.77;18.17;;;6.20;90.90;;;;;;4956330;28;20217;-70
2021/12/04 09:22:28;;;;;;;23.73;18.60;;;6.20;90.80;;;;;;4970534;28;20695;-70
2021/12/04 09:25:06;;;;;;;22.97;17.70;;;6.30;90.70;;;;;;4954501;29;20845;-70
2021/12/04 10:14:44;;;;;;;24.50;18.60;;;6.20;90.10;;;;;;4955605;29;20301;-70
2021/12/04 10:20:12;;;;;;;25.17;18.73;;;6.30;90.20;;;;;;4954363;29;20294;-70
2021/12/04 10:33:53;;;;;;;21.33;17.23;;;6.40;90.50;;;;;;4954741;29;20204;-70
2021/12/04 10:36:32;;;;;;;26.17;18.57;;;6.40;90.60;;;;;;4951430;28;20307;-70
2021/12/04 10:39:00;;;;;;;27.23;18.93;;;6.40;90.20;;;;;;4954277;29;20236;-70
2021/12/04 10:41:38;;;;;;;25.43;19.03;;;6.50;90.20;;;;;;4954536;28;20208;-70
2021/12/04 10:44:09;;;;;;;28.37;19.73;;;6.50;90.10;;;;;;4967325;28;20534;-70
2021/12/04 10:46:36;;;;;;;26.60;19.97;;;6.50;90.10;;;;;;4957634;28;20224;-70
2021/12/04 10:49:15;;;;;;;28.30;20.77;;;6.50;90.20;;;;;;4970371;28;20560;-70
2021/12/04 10:51:50;;;;;;;27.67;20.27;;;6.50;90.20;;;;;;4936311;29;20404;-70
2021/12/04 10:54:28;;;;;;;24.50;19.20;;;6.60;90.50;;;;;;4954054;29;20212;-70
2021/12/04 10:57:15;;;;;;;28.53;21.00;;;6.70;90.60;;;;;;4967015;28;20598;-70
2021/12/04 11:02:47;;;;;;;29.07;19.20;;;6.90;90.40;;;;;;4955796;28;20304;-70
2021/12/04 11:39:23;;;;;;;28.57;21.90;;;7.50;89.40;;;;;;4960562;28;20279;-70
2021/12/04 11:44:45;;;;;;;28.70;23.17;;;7.70;88.50;;;;;;4955728;29;20330;-70
2021/12/04 11:47:13;;;;;;;28.00;22.20;;;7.80;88.70;;;;;;4954158;29;20223;-70
2021/12/04 11:49:46;;;;;;;26.17;21.80;;;7.90;88.50;;;;;;4958706;29;20215;-70
2021/12/04 11:52:18;;;;;;;29.60;21.93;;;7.90;87.50;;;;;;4956988;28;20541;-70
2021/12/04 11:54:58;;;;;;;31.23;23.10;;;7.90;87.30;;;;;;4958497;28;20303;-70
2021/12/04 11:57:32;;;;;;;27.33;23.80;;;7.90;87.50;;;;;;4955874;29;20203;-70
2021/12/04 12:00:23;;;;;;;29.60;24.83;;;8.00;88.00;;;;;;4958289;28;20215;-70
2021/12/04 12:03:04;;;;;;;31.40;24.93;;;8.20;88.30;;;;;;4957374;29;20224;-70
2021/12/04 12:05:44;;;;;;;33.17;25.23;;;8.40;88.10;;;;;;4956590;29;20233;-70
2021/12/04 12:08:32;;;;;;;33.03;24.87;;;8.60;87.50;;;;;;4964149;28;20262;-70
2021/12/04 12:11:01;;;;;;;29.90;23.17;;;8.70;86.90;;;;;;4957808;28;20216;-70
2021/12/04 12:13:36;;;;;;;29.07;22.57;;;8.70;86.50;;;;;;4956226;29;20225;-70
2021/12/04 12:16:07;;;;;;;30.47;23.43;;;8.80;86.10;;;;;;4955352;29;20219;-70
2021/12/04 12:18:58;;;;;;;29.40;23.27;;;8.90;85.60;;;;;;4972108;28;20220;-70
2021/12/04 12:21:54;;;;;;;28.30;23.30;;;8.90;85.30;;;;;;4953238;28;20712;-70
2021/12/04 12:33:27;;;;;;;31.77;23.17;;;8.90;83.10;;;;;;4953755;29;20268;-70
2021/12/04 12:36:03;;;;;;;28.87;23.23;;;8.90;83.20;;;;;;4954977;28;20200;-70
2021/12/04 12:38:52;;;;;;;29.73;23.90;;;8.90;83.20;;;;;;4955246;29;20216;-70
2021/12/04 12:41:30;;;;;;;33.33;22.70;;;8.90;83.60;;;;;;4943086;28;20205;-70
2021/12/04 12:44:23;;;;;;;30.00;23.80;;;8.80;83.50;;;;;;4955820;29;20206;-70
2021/12/04 12:46:56;;;;;;;30.43;24.20;;;8.80;83.10;;;;;;4956789;28;20285;-70
2021/12/04 12:49:35;;;;;;;36.30;27.27;;;8.70;83.10;;;;;;4957950;28;20252;-70
2021/12/04 12:52:26;;;;;;;38.57;29.80;;;8.70;83.50;;;;;;4969634;28;20260;-70
2021/12/04 12:55:00;;;;;;;41.07;29.73;;;8.60;84.30;;;;;;4967804;28;20269;-70
2021/12/04 12:57:31;;;;;;;40.40;30.87;;;8.50;84.60;;;;;;4970104;28;20247;-70
2021/12/04 13:14:18;;;;;;;40.20;30.43;;;8.10;85.70;;;;;;4957004;28;20276;-70
2021/12/04 13:16:50;;;;;;;40.43;30.83;;;8.10;85.70;;;;;;4954128;29;20209;-70
2021/12/04 13:19:20;;;;;;;36.77;29.77;;;8.10;85.90;;;;;;4956396;29;20245;-70
2021/12/04 13:21:51;;;;;;;41.43;31.10;;;8.10;86.10;;;;;;4956453;28;20658;-70
2021/12/04 13:24:24;;;;;;;41.60;31.77;;;8.10;86.50;;;;;;4956243;28;20245;-70
2021/12/04 13:26:53;;;;;;;39.10;31.33;;;8.10;86.90;;;;;;4955017;29;20287;-70
2021/12/04 13:29:24;;;;;;;42.13;31.77;;;8.10;87.30;;;;;;4953692;29;20288;-70
2021/12/04 13:31:58;;;;;;;40.77;31.83;;;8.20;87.30;;;;;;4955712;29;20252;-70
2021/12/04 13:34:28;;;;;;;44.43;31.87;;;8.20;86.70;;;;;;4954051;29;20222;-70
2021/12/04 13:36:58;;;;;;;42.50;31.17;;;8.20;86.80;;;;;;4953954;29;20225;-70
2021/12/04 13:39:26;;;;;;;39.10;31.13;;;8.20;86.90;;;;;;4953568;28;20228;-70
2021/12/04 13:41:58;;;;;;;39.67;31.07;;;8.20;87.10;;;;;;4956874;28;20676;-70
2021/12/04 13:44:27;;;;;;;39.73;29.43;;;8.30;87.10;;;;;;4952595;29;20217;-70
2021/12/04 13:47:03;;;;;;;40.70;30.07;;;8.30;86.90;;;;;;4955554;28;20285;-70
2021/12/04 13:49:47;;;;;;;41.93;32.07;;;8.40;86.60;;;;;;4970228;28;20227;-70
2021/12/04 13:52:14;;;;;;;39.80;31.00;;;8.40;86.60;;;;;;4960499;28;20712;-70
2021/12/04 13:54:47;;;;;;;39.83;31.33;;;8.40;85.90;;;;;;4952756;28;20203;-70
2021/12/04 13:57:16;;;;;;;38.30;30.17;;;8.40;85.90;;;;;;4952987;28;20218;-70
2021/12/04 13:59:44;;;;;;;42.33;31.83;;;8.40;86.30;;;;;;4950968;29;20229;-70
2021/12/04 14:02:20;;;;;;;41.47;31.23;;;8.40;86.30;;;;;;4954751;28;20569;-70
2021/12/04 14:04:55;;;;;;;42.80;31.57;;;8.40;86.60;;;;;;4946336;28;20232;-70
2021/12/04 14:07:23;;;;;;;39.57;31.37;;;8.40;86.90;;;;;;4968498;28;20228;-70
2021/12/04 14:09:50;;;;;;;37.03;30.50;;;8.40;86.90;;;;;;4953330;28;20233;-70
2021/12/04 14:12:20;;;;;;;39.10;30.37;;;8.40;87.20;;;;;;4952821;28;20244;-70
2021/12/04 14:14:49;;;;;;;43.07;30.93;;;8.40;87.10;;;;;;4954379;28;20215;-70
2021/12/04 14:17:17;;;;;;;36.47;29.60;;;8.40;87.20;;;;;;4953069;28;20220;-70
2021/12/04 14:19:47;;;;;;;42.23;31.27;;;8.40;87.40;;;;;;4955084;28;20236;-70
2021/12/04 14:22:19;;;;;;;40.03;30.67;;;8.40;87.70;;;;;;4951577;29;20242;-70
2021/12/04 14:24:52;;;;;;;41.13;30.53;;;8.40;87.90;;;;;;4960638;28;20208;-70
2021/12/04 14:27:22;;;;;;;39.70;29.77;;;8.40;88.00;;;;;;4948065;29;20301;-69
2021/12/04 14:30:16;;;;;;;40.03;27.87;;;8.40;87.60;;;;;;4955087;28;20220;-69
2021/12/04 14:32:50;;;;;;;37.00;29.80;;;8.40;87.40;;;;;;4951876;29;20571;-69
2021/12/04 14:35:19;;;;;;;43.47;30.87;;;8.40;87.40;;;;;;4954582;28;20207;-69
2021/12/04 14:37:52;;;;;;;37.37;29.43;;;8.40;87.40;;;;;;4966701;28;20199;-69
2021/12/04 14:40:23;;;;;;;39.27;30.77;;;8.40;87.20;;;;;;4954555;28;20637;-69
2021/12/04 14:42:53;;;;;;;45.50;33.07;;;8.40;86.80;;;;;;4952913;28;20209;-69
2021/12/04 14:45:25;;;;;;;42.13;33.03;;;8.40;86.80;;;;;;4953722;29;20209;-69
2021/12/04 14:48:15;;;;;;;47.30;34.60;;;8.30;87.00;;;;;;4960104;28;20277;-69
2021/12/04 14:50:48;;;;;;;39.37;31.30;;;8.30;87.20;;;;;;4951924;28;20218;-69
2021/12/04 14:53:18;;;;;;;42.67;31.97;;;8.30;87.30;;;;;;4968111;28;20324;-69
2021/12/04 14:55:50;;;;;;;52.83;35.97;;;8.30;87.30;;;;;;4953070;28;20260;-69
2021/12/04 14:58:21;;;;;;;49.90;38.43;;;8.20;87.50;;;;;;4950969;29;20688;-69
2021/12/04 15:01:07;;;;;;;42.83;32.40;;;8.20;87.60;;;;;;4951408;28;20209;-69
2021/12/04 15:03:38;;;;;;;53.10;33.53;;;8.20;88.00;;;;;;4966778;28;20291;-69
2021/12/04 15:06:10;;;;;;;46.80;32.80;;;8.10;88.00;;;;;;4953115;28;20209;-69
2021/12/04 15:08:47;;;;;;;62.00;41.20;;;8.10;88.50;;;;;;4953839;29;20272;-69
2021/12/04 15:11:22;;;;;;;56.30;41.77;;;8.00;88.50;;;;;;4953503;29;20693;-69
2021/12/04 15:14:07;;;;;;;54.13;39.47;;;7.90;88.70;;;;;;4953501;29;20719;-69
2021/12/04 15:16:41;;;;;;;50.07;36.73;;;7.90;89.10;;;;;;4966461;28;20288;-69
2021/12/04 15:19:26;;;;;;;52.47;39.97;;;7.80;89.40;;;;;;4953960;29;20573;-69
2021/12/04 15:21:58;;;;;;;49.47;38.90;;;7.80;89.60;;;;;;4952851;29;20315;-70
2021/12/04 15:24:29;;;;;;;51.07;38.40;;;7.80;90.00;;;;;;4948985;28;20300;-70
2021/12/04 15:27:02;;;;;;;47.93;38.47;;;7.70;90.10;;;;;;4952574;28;20209;-70
2021/12/04 15:29:32;;;;;;;50.50;38.50;;;7.60;90.00;;;;;;4952605;28;20205;-70
2021/12/04 15:32:05;;;;;;;46.77;36.13;;;7.60;90.20;;;;;;4953272;28;20297;-70
2021/12/04 15:34:38;;;;;;;40.00;31.23;;;7.60;90.30;;;;;;4950894;29;20292;-70
2021/12/04 15:37:06;;;;;;;40.00;30.60;;;7.50;90.40;;;;;;4963965;28;20256;-70
2021/12/04 15:39:46;;;;;;;39.87;29.53;;;7.50;90.20;;;;;;4952804;29;20228;-70
2021/12/04 15:44:57;;;;;;;37.87;28.57;;;7.40;90.20;;;;;;4953156;28;20280;-70
2021/12/04 15:47:33;;;;;;;38.43;28.07;;;7.40;90.40;;;;;;4951080;29;20231;-70
2021/12/04 15:53:13;;;;;;;38.30;29.13;;;7.30;90.30;;;;;;4950493;29;20247;-70
2021/12/04 15:55:46;;;;;;;35.50;28.53;;;7.20;90.20;;;;;;4948167;28;20280;-69
2021/12/04 15:58:20;;;;;;;37.47;27.83;;;7.20;90.30;;;;;;4951318;29;20537;-69
2021/12/04 16:00:53;;;;;;;35.43;28.00;;;7.20;90.40;;;;;;4952561;29;20265;-69
2021/12/04 16:03:24;;;;;;;36.10;28.80;;;7.20;90.50;;;;;;4952901;28;20215;-69
2021/12/04 16:05:57;;;;;;;37.37;29.63;;;7.20;90.50;;;;;;4953762;28;20279;-69
2021/12/04 16:08:28;;;;;;;40.63;29.33;;;7.10;90.60;;;;;;4941200;29;20331;-69
2021/12/04 16:11:14;;;;;;;35.80;27.20;;;7.20;90.70;;;;;;4956547;28;20231;-69
2021/12/04 16:13:49;;;;;;;37.10;27.00;;;7.10;90.70;;;;;;4951925;29;20225;-70
2021/12/04 16:16:20;;;;;;;37.97;27.07;;;7.20;90.60;;;;;;4952791;29;20224;-70
2021/12/04 16:18:51;;;;;;;34.00;26.03;;;7.20;90.60;;;;;;4946537;29;20285;-70